Time;durP1;ratioP1;P1;durP2;ratioP2;P2;SDS_P1;SDS_P2;PMS_P1;PMS_P2;Temp;Humidity;BMP_temperature;BMP_pressure;BME280_temperature;BME280_humidity;BME280_pressure;Samples;Min_cycle;Max_cycle;Signal;HPM_P1;HPM_P2
2022/05/19 00:01:23;;;;;;;4.45;0.50;;;9.00;97.40;;;;;;4189865;28;20098;-65
2022/05/19 00:03:25;;;;;;;1.20;0.60;;;8.90;97.20;;;;;;4189427;28;20575;-65
2022/05/19 00:05:26;;;;;;;1.53;0.30;;;9.00;97.30;;;;;;4189330;28;20108;-65
2022/05/19 00:07:27;;;;;;;1.43;0.90;;;9.00;97.30;;;;;;4190097;28;20791;-65
2022/05/19 00:09:29;;;;;;;4.63;0.40;;;9.00;97.40;;;;;;4188895;28;20054;-65
2022/05/19 00:11:34;;;;;;;1.70;0.50;;;8.90;97.30;;;;;;4189636;28;20074;-65
2022/05/19 00:13:36;;;;;;;2.97;0.70;;;8.90;97.60;;;;;;4181606;28;20040;-65
2022/05/19 00:15:37;;;;;;;5.90;0.60;;;8.90;97.80;;;;;;4173835;28;20462;-66
2022/05/19 00:17:39;;;;;;;4.43;0.70;;;8.80;98.00;;;;;;4173270;28;20029;-65
2022/05/19 00:19:40;;;;;;;1.37;0.80;;;8.80;98.00;;;;;;4188388;28;20098;-65
2022/05/19 00:21:42;;;;;;;0.87;0.40;;;8.90;98.10;;;;;;4172133;28;20021;-65
2022/05/19 00:23:43;;;;;;;2.53;0.50;;;8.90;98.00;;;;;;4173195;28;20428;-65
2022/05/19 00:25:45;;;;;;;3.60;0.40;;;8.90;97.90;;;;;;4171570;28;20053;-65
2022/05/19 00:27:47;;;;;;;3.47;0.60;;;8.80;98.00;;;;;;4173070;28;20924;-67
2022/05/19 00:29:48;;;;;;;1.50;0.70;;;8.80;98.30;;;;;;4178481;28;20032;-66
2022/05/19 00:31:49;;;;;;;2.37;0.40;;;8.80;98.40;;;;;;4189926;28;20098;-65
2022/05/19 00:33:50;;;;;;;0.83;0.30;;;8.80;98.30;;;;;;4188563;28;20071;-65
2022/05/19 00:35:51;;;;;;;0.70;0.47;;;8.80;98.50;;;;;;4188872;28;20558;-67
2022/05/19 00:37:52;;;;;;;2.10;0.40;;;8.70;98.60;;;;;;4189326;28;20097;-65
2022/05/19 00:39:53;;;;;;;2.30;0.50;;;8.70;98.60;;;;;;4188564;28;20055;-64
2022/05/19 00:44:15;;;;;;;3.43;0.67;;;8.70;99.00;;;;;;4188949;28;20048;-65
2022/05/19 00:46:23;;;;;;;3.50;0.70;;;8.60;99.20;;;;;;4178899;28;20041;-65
2022/05/19 00:48:29;;;;;;;3.37;0.47;;;8.50;99.50;;;;;;4172026;28;20045;-67
2022/05/19 00:50:50;;;;;;;1.23;0.40;;;8.60;99.40;;;;;;4173548;28;20048;-65
2022/05/19 00:52:57;;;;;;;2.00;0.60;;;8.50;99.50;;;;;;4172981;28;20045;-65
2022/05/19 00:55:29;;;;;;;0.60;0.27;;;8.50;99.60;;;;;;4173293;28;20037;-67
2022/05/19 00:57:35;;;;;;;2.67;0.90;;;8.50;99.90;;;;;;4175229;28;20100;-66
2022/05/19 00:59:43;;;;;;;1.23;0.47;;;8.50;99.80;;;;;;4177619;28;20052;-66
2022/05/19 01:01:44;;;;;;;3.20;0.97;;;8.40;99.80;;;;;;4181651;28;20411;-66
2022/05/19 01:04:09;;;;;;;3.63;0.70;;;8.40;99.90;;;;;;4194703;28;20074;-66
2022/05/19 01:06:17;;;;;;;2.17;0.60;;;8.30;99.90;;;;;;4193062;28;20052;-66
2022/05/19 01:08:24;;;;;;;5.37;0.60;;;8.30;99.90;;;;;;4194556;28;20020;-66
2022/05/19 01:10:26;;;;;;;2.33;0.40;;;8.20;99.90;;;;;;4194011;28;20082;-67
2022/05/19 01:12:29;;;;;;;1.40;0.57;;;8.20;99.90;;;;;;4194667;28;21027;-66
2022/05/19 01:14:31;;;;;;;2.33;0.40;;;8.20;99.90;;;;;;4193333;28;20106;-66
2022/05/19 01:16:33;;;;;;;1.20;0.40;;;8.20;99.90;;;;;;4195049;28;20106;-64
2022/05/19 01:18:35;;;;;;;5.17;0.50;;;8.20;99.90;;;;;;4193893;28;20028;-65
2022/05/19 01:20:38;;;;;;;1.93;0.93;;;8.10;99.90;;;;;;4181291;28;20041;-65
2022/05/19 01:23:18;;;;;;;4.10;0.60;;;8.10;99.90;;;;;;4176869;28;20374;-65
2022/05/19 01:25:47;;;;;;;6.40;0.50;;;8.10;99.90;;;;;;4178168;28;20460;-65
2022/05/19 01:27:49;;;;;;;3.40;0.67;;;8.10;99.90;;;;;;4177462;28;20102;-65
2022/05/19 01:29:50;;;;;;;1.47;0.53;;;8.10;99.90;;;;;;4177912;28;20045;-65
2022/05/19 01:31:57;;;;;;;3.20;0.57;;;8.10;99.90;;;;;;4176942;28;20033;-64
2022/05/19 01:34:00;;;;;;;1.67;0.70;;;8.00;99.90;;;;;;4177718;28;20087;-66
2022/05/19 01:36:01;;;;;;;0.90;0.50;;;8.00;99.90;;;;;;4177461;28;20625;-66
2022/05/19 01:38:08;;;;;;;2.70;0.80;;;8.00;99.90;;;;;;4187372;28;20056;-64
2022/05/19 01:40:31;;;;;;;2.40;0.43;;;7.90;99.90;;;;;;4193725;28;20083;-65
2022/05/19 01:42:46;;;;;;;3.27;0.40;;;7.90;99.90;;;;;;4194791;28;20086;-65
2022/05/19 01:45:11;;;;;;;2.53;0.50;;;7.90;99.90;;;;;;4193383;28;20087;-67
2022/05/19 01:47:34;;;;;;;1.13;0.57;;;7.80;99.90;;;;;;4193756;28;20094;-66
2022/05/19 01:50:08;;;;;;;4.73;0.90;;;7.80;99.90;;;;;;4194067;28;20048;-67
2022/05/19 01:52:29;;;;;;;4.40;0.60;;;7.80;99.90;;;;;;4192963;28;20024;-66
2022/05/19 01:55:11;;;;;;;1.57;0.57;;;7.80;99.90;;;;;;4194417;28;20546;-67
2022/05/19 01:57:28;;;;;;;0.97;0.40;;;7.70;99.90;;;;;;4189484;28;20071;-66
2022/05/19 01:59:43;;;;;;;4.33;0.93;;;7.70;99.90;;;;;;4178004;28;20580;-67
2022/05/19 02:01:55;;;;;;;2.73;1.07;;;7.70;99.90;;;;;;4177039;28;20021;-67
2022/05/19 02:04:08;;;;;;;2.83;0.63;;;7.70;99.90;;;;;;4178157;28;20021;-67
2022/05/19 02:06:38;;;;;;;2.10;0.60;;;7.70;99.90;;;;;;4177083;28;20071;-66
2022/05/19 02:08:52;;;;;;;2.65;0.60;;;7.70;99.90;;;;;;4166752;28;20123;-64
2022/05/19 02:10:57;;;;;;;1.70;0.47;;;7.70;99.90;;;;;;4174075;28;20083;-67
2022/05/19 02:13:01;;;;;;;3.50;0.90;;;7.70;99.90;;;;;;4174942;28;20378;-66
2022/05/19 02:15:07;;;;;;;3.63;1.47;;;7.70;99.90;;;;;;4174252;28;20036;-66
2022/05/19 02:17:14;;;;;;;5.07;0.40;;;7.70;99.90;;;;;;4177958;28;20410;-64
2022/05/19 02:19:22;;;;;;;2.27;0.70;;;7.70;99.90;;;;;;4190676;28;20032;-66
2022/05/19 02:21:24;;;;;;;1.77;0.47;;;7.70;99.90;;;;;;4191431;28;20021;-65
2022/05/19 02:23:26;;;;;;;0.87;0.50;;;7.70;99.90;;;;;;4180896;28;20024;-65
2022/05/19 02:25:39;;;;;;;2.33;0.40;;;7.70;99.90;;;;;;4174935;28;20599;-66
2022/05/19 02:27:52;;;;;;;3.93;0.63;;;7.70;99.90;;;;;;4174005;28;20485;-65
2022/05/19 02:29:54;;;;;;;3.80;0.83;;;7.60;99.90;;;;;;4174967;28;20037;-65
2022/05/19 02:31:55;;;;;;;2.27;0.77;;;7.60;99.90;;;;;;4173772;28;20944;-65
2022/05/19 02:33:56;;;;;;;2.27;0.80;;;7.50;99.90;;;;;;4174831;28;20041;-65
2022/05/19 02:35:58;;;;;;;4.73;0.80;;;7.40;99.90;;;;;;4173580;28;20036;-68
2022/05/19 02:38:00;;;;;;;3.83;0.60;;;7.40;99.90;;;;;;4185772;28;20082;-66
2022/05/19 02:40:01;;;;;;;2.40;0.97;;;7.20;99.90;;;;;;4190160;28;20062;-65
2022/05/19 02:42:03;;;;;;;1.63;0.77;;;7.10;99.90;;;;;;4191750;28;20472;-66
2022/05/19 02:44:04;;;;;;;5.43;0.80;;;7.00;99.90;;;;;;4190748;28;20032;-66
2022/05/19 02:46:06;;;;;;;2.30;0.90;;;6.90;99.90;;;;;;4190503;28;20040;-65
2022/05/19 02:48:09;;;;;;;3.00;0.70;;;6.90;99.90;;;;;;4189785;28;20044;-65
2022/05/19 02:50:11;;;;;;;1.97;0.77;;;6.90;99.90;;;;;;4191042;28;20028;-65
2022/05/19 02:52:13;;;;;;;2.57;0.90;;;6.90;99.90;;;;;;4189954;28;20024;-66
2022/05/19 02:54:20;;;;;;;3.47;0.70;;;6.90;99.90;;;;;;4190369;28;20032;-65
2022/05/19 02:56:21;;;;;;;2.17;0.90;;;7.00;99.90;;;;;;4190186;28;20094;-66
2022/05/19 02:58:22;;;;;;;2.13;1.00;;;7.10;99.90;;;;;;4189227;28;20810;-66
2022/05/19 03:00:25;;;;;;;8.33;1.13;;;7.30;99.90;;;;;;4174268;28;20037;-66
2022/05/19 03:02:26;;;;;;;3.27;0.80;;;7.40;99.90;;;;;;4173599;28;20086;-66
2022/05/19 03:04:28;;;;;;;2.83;0.87;;;7.60;99.90;;;;;;4174646;28;20086;-65
2022/05/19 03:06:29;;;;;;;1.53;0.77;;;7.80;99.90;;;;;;4172876;28;20044;-65
2022/05/19 03:08:30;;;;;;;1.93;0.93;;;8.10;99.90;;;;;;4175052;28;20090;-66
2022/05/19 03:10:31;;;;;;;2.53;0.80;;;8.30;99.90;;;;;;4172759;28;20036;-67
2022/05/19 03:12:33;;;;;;;2.13;0.77;;;8.50;99.90;;;;;;4174579;28;20106;-66
2022/05/19 03:14:34;;;;;;;4.47;1.07;;;8.70;99.90;;;;;;4173097;28;20037;-68
2022/05/19 03:16:37;;;;;;;4.20;1.00;;;9.00;99.90;;;;;;4174306;28;20078;-66
2022/05/19 03:18:38;;;;;;;2.27;0.80;;;9.30;99.90;;;;;;4173091;28;20025;-65
2022/05/19 03:20:39;;;;;;;4.57;1.30;;;9.50;99.90;;;;;;4172791;28;20079;-66
2022/05/19 03:22:41;;;;;;;1.63;0.90;;;9.90;99.90;;;;;;4173056;28;20094;-67
2022/05/19 03:24:42;;;;;;;4.07;1.00;;;10.20;99.90;;;;;;4173491;28;20082;-67
2022/05/19 03:26:43;;;;;;;6.10;0.97;;;10.40;99.90;;;;;;4173210;28;20045;-68
2022/05/19 03:28:44;;;;;;;4.60;0.80;;;10.80;99.90;;;;;;4173361;28;20025;-65
2022/05/19 03:30:45;;;;;;;4.43;0.70;;;11.00;99.90;;;;;;4174456;28;20029;-65
2022/05/19 03:32:46;;;;;;;5.23;0.70;;;11.10;99.90;;;;;;4173019;28;20079;-66
2022/05/19 03:34:48;;;;;;;4.40;0.97;;;11.30;99.90;;;;;;4174435;28;20119;-67
2022/05/19 03:36:49;;;;;;;9.77;1.00;;;11.50;99.90;;;;;;4176507;28;20040;-65
2022/05/19 03:38:50;;;;;;;4.33;1.07;;;11.80;99.90;;;;;;4174138;28;20535;-67
2022/05/19 03:40:51;;;;;;;2.67;0.90;;;12.00;99.30;;;;;;4172655;28;20090;-66
2022/05/19 03:42:52;;;;;;;3.57;1.00;;;12.20;99.10;;;;;;4173654;28;20546;-68
2022/05/19 03:44:53;;;;;;;3.97;1.07;;;12.40;98.60;;;;;;4172715;28;20037;-65
2022/05/19 03:46:54;;;;;;;2.93;0.80;;;12.60;98.40;;;;;;4173105;28;20271;-67
2022/05/19 03:48:56;;;;;;;3.13;0.70;;;12.80;97.80;;;;;;4172515;28;20033;-66
2022/05/19 03:50:57;;;;;;;3.30;0.87;;;13.10;97.50;;;;;;4173572;28;20158;-67
2022/05/19 03:52:58;;;;;;;5.93;1.13;;;13.30;96.70;;;;;;4172363;28;20094;-69
2022/05/19 03:54:59;;;;;;;1.23;0.73;;;13.70;96.30;;;;;;4172944;28;20444;-66
2022/05/19 03:57:00;;;;;;;3.43;0.90;;;13.90;95.60;;;;;;4172603;28;20017;-66
2022/05/19 03:59:02;;;;;;;6.10;0.90;;;13.90;95.00;;;;;;4172419;28;20536;-66
2022/05/19 04:01:04;;;;;;;1.77;0.60;;;14.10;94.90;;;;;;4172671;28;20397;-68
2022/05/19 04:03:06;;;;;;;5.70;1.10;;;14.60;94.60;;;;;;4171994;28;20029;-68
2022/05/19 04:05:07;;;;;;;2.27;0.73;;;15.20;93.80;;;;;;4181572;28;20090;-67
2022/05/19 04:07:08;;;;;;;6.03;1.60;;;15.60;92.60;;;;;;4171840;28;20094;-67
2022/05/19 04:09:09;;;;;;;3.50;0.93;;;16.10;92.00;;;;;;4173469;28;20468;-67
2022/05/19 04:11:12;;;;;;;2.30;1.00;;;16.70;91.40;;;;;;4171619;28;20116;-66
2022/05/19 04:13:14;;;;;;;1.77;1.00;;;17.20;90.10;;;;;;4172778;28;20037;-68
2022/05/19 04:15:15;;;;;;;6.73;1.17;;;17.30;87.60;;;;;;4172010;28;20086;-68
2022/05/19 04:17:16;;;;;;;2.88;0.82;;;17.20;86.90;;;;;;4172562;28;20159;-66
2022/05/19 04:19:18;;;;;;;4.53;1.20;;;17.30;85.90;;;;;;4171446;28;20489;-67
2022/05/19 04:21:20;;;;;;;1.90;0.73;;;17.10;84.80;;;;;;4167219;28;20087;-66
2022/05/19 04:23:22;;;;;;;7.78;0.93;;;16.80;84.20;;;;;;4159557;28;20075;-66
2022/05/19 04:25:25;;;;;;;3.22;0.75;;;16.50;83.70;;;;;;4170448;28;20056;-65
2022/05/19 04:27:27;;;;;;;3.42;1.20;;;16.40;83.80;;;;;;4160069;28;20481;-67
2022/05/19 04:29:29;;;;;;;3.30;0.73;;;16.80;83.80;;;;;;4172006;28;20473;-66
2022/05/19 04:31:30;;;;;;;2.28;0.60;;;17.40;82.70;;;;;;4169966;28;20041;-65
2022/05/19 04:33:31;;;;;;;2.45;0.80;;;17.60;81.20;;;;;;4170297;28;20037;-66
2022/05/19 04:35:33;;;;;;;3.90;0.95;;;18.00;80.60;;;;;;4177222;28;20143;-64
2022/05/19 04:37:34;;;;;;;6.80;1.33;;;18.60;79.60;;;;;;4188122;28;20029;-65
2022/05/19 04:39:35;;;;;;;6.47;1.60;;;19.10;77.90;;;;;;4189428;28;20028;-67
2022/05/19 04:41:37;;;;;;;2.47;0.80;;;19.40;76.50;;;;;;4187905;28;20037;-66
2022/05/19 04:43:38;;;;;;;2.55;1.00;;;19.60;75.70;;;;;;4189612;28;20029;-67
2022/05/19 04:45:39;;;;;;;1.58;0.70;;;20.00;74.90;;;;;;4187903;28;20102;-66
2022/05/19 04:47:40;;;;;;;2.42;0.80;;;20.40;73.60;;;;;;4189025;28;20029;-67
2022/05/19 04:49:42;;;;;;;3.45;0.90;;;20.60;72.50;;;;;;4188057;28;20036;-67
2022/05/19 04:51:43;;;;;;;8.50;1.20;;;20.40;71.40;;;;;;4189096;28;20041;-67
2022/05/19 04:53:44;;;;;;;9.05;1.75;;;20.30;71.70;;;;;;4187693;28;20028;-67
2022/05/19 04:55:45;;;;;;;2.83;1.08;;;20.60;71.10;;;;;;4189187;28;20473;-67
2022/05/19 04:57:46;;;;;;;4.13;1.25;;;20.80;70.50;;;;;;4187660;28;20032;-67
2022/05/19 04:59:47;;;;;;;4.00;1.02;;;21.10;69.70;;;;;;4188130;28;20036;-67
2022/05/19 05:01:49;;;;;;;8.43;1.75;;;21.40;69.00;;;;;;4188469;28;20036;-68
2022/05/19 05:03:50;;;;;;;6.30;1.17;;;21.50;68.00;;;;;;4187877;28;20086;-66
2022/05/19 05:05:51;;;;;;;3.60;0.70;;;22.00;67.30;;;;;;4188480;28;20508;-66
2022/05/19 05:07:52;;;;;;;4.32;0.95;;;22.10;66.60;;;;;;4187670;28;20121;-65
2022/05/19 05:09:54;;;;;;;5.07;1.02;;;22.50;66.40;;;;;;4188945;28;20492;-66
2022/05/19 05:11:55;;;;;;;7.30;1.15;;;22.50;64.80;;;;;;4187123;28;20074;-66
2022/05/19 05:13:56;;;;;;;7.72;1.27;;;22.50;64.60;;;;;;4188909;28;20181;-65
2022/05/19 05:15:58;;;;;;;4.03;2.00;;;22.00;64.20;;;;;;4187900;28;20824;-68
2022/05/19 05:17:59;;;;;;;4.45;1.40;;;22.10;64.50;;;;;;4189167;28;20102;-67
2022/05/19 05:20:01;;;;;;;7.20;1.40;;;22.30;64.20;;;;;;4187155;28;20036;-66
2022/05/19 05:22:02;;;;;;;7.00;1.38;;;22.30;63.80;;;;;;4188818;28;20029;-66
2022/05/19 05:24:03;;;;;;;4.10;1.40;;;22.50;63.40;;;;;;4187850;28;20090;-66
2022/05/19 05:26:06;;;;;;;4.82;1.02;;;22.00;63.10;;;;;;4188721;28;20066;-67
2022/05/19 05:28:08;;;;;;;4.85;1.13;;;22.00;63.10;;;;;;4187889;28;20086;-68
2022/05/19 05:30:11;;;;;;;3.33;1.05;;;21.90;62.90;;;;;;4188235;28;20094;-66
2022/05/19 05:32:12;;;;;;;4.13;1.10;;;21.80;62.60;;;;;;4187695;28;20431;-66
2022/05/19 05:34:13;;;;;;;3.35;1.30;;;22.30;62.70;;;;;;4185873;28;20086;-66
2022/05/19 05:36:15;;;;;;;2.92;1.00;;;22.60;62.00;;;;;;4188609;28;20032;-66
2022/05/19 05:38:17;;;;;;;3.15;0.60;;;22.20;61.40;;;;;;4187598;28;20167;-66
2022/05/19 05:40:18;;;;;;;3.20;0.70;;;21.70;61.50;;;;;;4188829;28;20032;-66
2022/05/19 05:42:19;;;;;;;2.53;1.40;;;21.70;61.80;;;;;;4187284;28;20534;-66
2022/05/19 05:44:20;;;;;;;6.55;0.93;;;22.30;61.30;;;;;;4189669;28;20048;-67
2022/05/19 05:46:22;;;;;;;5.28;1.02;;;22.80;60.70;;;;;;4190150;28;20113;-66
2022/05/19 05:48:23;;;;;;;4.28;1.10;;;23.30;60.50;;;;;;4191818;28;20041;-65
2022/05/19 05:50:24;;;;;;;7.90;1.17;;;23.30;59.00;;;;;;4190157;28;20036;-67
2022/05/19 05:52:26;;;;;;;3.67;0.95;;;23.20;58.70;;;;;;4189925;28;20044;-66
2022/05/19 05:54:27;;;;;;;3.17;0.80;;;23.00;58.50;;;;;;4190445;28;20087;-66
2022/05/19 05:56:28;;;;;;;6.35;1.17;;;23.00;58.80;;;;;;4191445;28;20070;-66
2022/05/19 05:58:30;;;;;;;4.78;0.80;;;23.00;58.50;;;;;;4190484;28;20794;-66
2022/05/19 06:00:32;;;;;;;1.55;0.60;;;22.90;58.30;;;;;;4191272;28;20146;-66
2022/05/19 06:02:33;;;;;;;2.83;0.77;;;23.00;58.30;;;;;;4190870;28;20016;-66
2022/05/19 06:04:36;;;;;;;3.97;0.98;;;23.30;58.10;;;;;;4190973;28;20024;-66
2022/05/19 06:06:37;;;;;;;3.15;1.08;;;23.50;57.80;;;;;;4190893;28;20416;-66
2022/05/19 06:08:38;;;;;;;4.80;0.95;;;23.30;57.40;;;;;;4188825;28;20033;-66
2022/05/19 06:10:40;;;;;;;1.85;0.63;;;22.80;57.80;;;;;;4191956;28;20489;-66
2022/05/19 06:12:41;;;;;;;16.92;4.85;;;22.50;58.40;;;;;;4190045;28;20101;-65
2022/05/19 06:14:43;;;;;;;22.25;5.10;;;22.40;58.60;;;;;;4191010;28;20447;-66
2022/05/19 06:16:44;;;;;;;10.57;2.22;;;21.40;58.50;;;;;;4190180;28;20469;-66
2022/05/19 06:18:45;;;;;;;11.82;2.20;;;21.10;59.30;;;;;;4191468;28;20028;-66
2022/05/19 06:20:47;;;;;;;16.02;3.05;;;20.60;59.90;;;;;;4189960;28;20842;-65
2022/05/19 06:22:48;;;;;;;15.77;3.17;;;20.10;60.60;;;;;;4191429;28;20034;-66
2022/05/19 06:24:50;;;;;;;17.52;3.25;;;19.90;60.30;;;;;;4189582;28;20085;-65
2022/05/19 06:26:51;;;;;;;19.83;3.33;;;20.10;60.00;;;;;;4190763;28;20057;-66
2022/05/19 06:28:52;;;;;;;22.70;3.75;;;19.90;60.00;;;;;;4189960;28;20552;-67
2022/05/19 06:30:54;;;;;;;29.20;3.50;;;19.90;60.40;;;;;;4191535;28;20032;-66
2022/05/19 06:32:55;;;;;;;16.55;2.42;;;19.80;60.70;;;;;;4190196;28;20443;-66
2022/05/19 06:34:56;;;;;;;15.27;2.05;;;19.60;60.80;;;;;;4190089;28;20024;-66
2022/05/19 06:36:57;;;;;;;18.20;2.72;;;19.80;60.80;;;;;;4190919;28;20067;-66
2022/05/19 06:38:59;;;;;;;15.35;2.90;;;20.10;60.50;;;;;;4190472;28;20036;-66
2022/05/19 06:42:01;;;;;;;13.18;2.05;;;20.50;60.20;;;;;;4191044;28;20469;-65
2022/05/19 06:43:30;;;;;;;5.45;1.55;;;20.80;59.70;;;;;;4181196;28;20802;-65
2022/05/19 06:45:31;;;;;;;9.38;1.98;;;20.30;58.60;;;;;;4190699;28;20037;-66
2022/05/19 06:47:32;;;;;;;7.32;1.75;;;19.60;59.10;;;;;;4189481;28;20618;-66
2022/05/19 06:49:34;;;;;;;6.75;1.38;;;19.30;59.90;;;;;;4190478;28;20036;-67
2022/05/19 06:51:35;;;;;;;9.70;1.63;;;19.20;60.00;;;;;;4189781;28;20145;-66
2022/05/19 06:53:37;;;;;;;6.68;1.25;;;19.60;60.20;;;;;;4190976;28;20419;-66
2022/05/19 06:55:38;;;;;;;6.10;0.93;;;20.10;60.30;;;;;;4188701;28;20025;-66
2022/05/19 06:57:39;;;;;;;2.38;0.75;;;20.30;59.60;;;;;;4190339;28;20049;-65
2022/05/19 06:59:41;;;;;;;5.05;0.98;;;19.80;59.80;;;;;;4189327;28;20040;-67
2022/05/19 07:01:45;;;;;;;4.20;0.90;;;19.00;60.50;;;;;;4190752;28;20045;-66
2022/05/19 07:03:46;;;;;;;3.05;0.63;;;18.90;61.00;;;;;;4189434;28;20028;-66
2022/05/19 07:05:47;;;;;;;2.85;0.98;;;18.70;61.70;;;;;;4190604;28;20130;-66
2022/05/19 07:07:48;;;;;;;3.53;0.63;;;18.00;62.70;;;;;;4189386;28;20070;-66
2022/05/19 07:09:49;;;;;;;6.88;1.08;;;17.70;64.50;;;;;;4190230;28;20044;-66
2022/05/19 07:11:50;;;;;;;7.78;0.90;;;17.70;64.30;;;;;;4189100;28;20082;-65
2022/05/19 07:14:00;;;;;;;4.82;0.95;;;17.90;64.40;;;;;;4189666;28;20074;-66
2022/05/19 07:16:01;;;;;;;2.95;0.88;;;18.30;64.20;;;;;;4189616;28;20153;-65
2022/05/19 07:18:03;;;;;;;8.15;1.10;;;18.50;63.70;;;;;;4189339;28;20451;-65
2022/05/19 07:22:25;;;;;;;3.70;0.95;;;18.60;63.20;;;;;;4189175;28;20045;-66
2022/05/19 07:24:26;;;;;;;4.32;0.88;;;18.30;63.70;;;;;;4189079;28;20138;-66
2022/05/19 07:26:27;;;;;;;2.85;0.73;;;18.00;64.40;;;;;;4187795;28;20118;-66
2022/05/19 07:28:28;;;;;;;3.42;1.20;;;17.70;65.10;;;;;;4189742;28;20101;-66
2022/05/19 07:30:29;;;;;;;2.63;0.90;;;17.70;65.50;;;;;;4188529;28;20025;-67
2022/05/19 07:32:30;;;;;;;3.25;1.00;;;17.50;65.50;;;;;;4190524;28;20028;-67
2022/05/19 07:34:34;;;;;;;4.50;0.80;;;17.50;65.90;;;;;;4188702;28;20062;-65
2022/05/19 07:36:35;;;;;;;3.58;0.90;;;17.40;65.90;;;;;;4190322;28;20082;-66
2022/05/19 07:38:36;;;;;;;5.22;1.10;;;17.20;66.40;;;;;;4189235;28;20020;-67
2022/05/19 07:40:37;;;;;;;3.90;0.80;;;17.20;66.50;;;;;;4190256;28;20040;-66
2022/05/19 07:42:39;;;;;;;5.03;0.93;;;17.50;66.50;;;;;;4171106;28;20075;-67
2022/05/19 07:44:41;;;;;;;3.72;0.93;;;17.80;66.10;;;;;;4190212;28;20101;-67
2022/05/19 07:46:42;;;;;;;6.03;1.30;;;18.20;65.90;;;;;;4188598;28;20728;-67
2022/05/19 07:48:43;;;;;;;3.20;0.93;;;18.20;65.70;;;;;;4189718;28;20041;-67
2022/05/19 07:50:45;;;;;;;5.60;0.88;;;18.10;65.90;;;;;;4188859;28;20067;-68
2022/05/19 07:52:46;;;;;;;3.05;1.08;;;17.70;66.00;;;;;;4189341;28;20070;-67
2022/05/19 07:54:48;;;;;;;4.65;1.33;;;17.60;66.20;;;;;;4189846;28;20099;-67
2022/05/19 07:56:50;;;;;;;6.03;1.10;;;17.30;66.60;;;;;;4188581;28;20037;-67
2022/05/19 07:58:52;;;;;;;1.33;0.80;;;17.30;67.00;;;;;;4189570;28;20052;-65
2022/05/19 08:00:53;;;;;;;3.90;0.80;;;17.60;67.00;;;;;;4188358;28;20554;-67
2022/05/19 08:02:55;;;;;;;4.60;1.00;;;18.00;66.30;;;;;;4190081;28;20472;-67
2022/05/19 08:04:58;;;;;;;1.63;0.90;;;18.20;65.60;;;;;;4188237;28;20040;-66
2022/05/19 08:07:01;;;;;;;4.38;1.05;;;18.20;65.40;;;;;;4188967;28;20098;-67
2022/05/19 08:10:20;;;;;;;1.38;0.98;;;18.20;66.40;;;;;;4188614;28;20044;-67
2022/05/19 08:11:26;;;;;;;2.63;1.02;;;18.60;66.10;;;;;;4189513;28;20052;-68
2022/05/19 08:15:48;;;;;;;7.10;2.50;;;18.30;66.40;;;;;;4190090;28;20488;-65
2022/05/19 08:17:49;;;;;;;6.05;1.30;;;18.20;66.20;;;;;;4188309;28;20818;-65
2022/05/19 08:19:50;;;;;;;5.70;1.95;;;18.20;66.90;;;;;;4189269;28;20097;-66
2022/05/19 08:21:51;;;;;;;6.70;1.33;;;18.30;66.80;;;;;;4186529;28;20036;-66
2022/05/19 08:23:52;;;;;;;6.60;1.35;;;18.10;66.60;;;;;;4189437;28;20033;-66
2022/05/19 08:25:55;;;;;;;6.40;1.48;;;18.00;66.90;;;;;;4188080;28;20406;-66
2022/05/19 08:27:57;;;;;;;11.98;1.55;;;17.80;67.40;;;;;;4189140;28;20043;-66
2022/05/19 08:29:58;;;;;;;7.28;1.63;;;17.70;67.50;;;;;;4187944;28;20094;-66
2022/05/19 08:31:59;;;;;;;7.10;2.67;;;17.80;67.20;;;;;;4188957;28;20032;-65
2022/05/19 08:34:03;;;;;;;5.47;1.13;;;17.90;67.70;;;;;;4188052;28;20028;-66
2022/05/19 08:36:05;;;;;;;9.95;1.77;;;17.90;67.80;;;;;;4187858;28;20029;-67
2022/05/19 08:38:07;;;;;;;14.10;2.70;;;18.00;67.60;;;;;;4188259;28;20024;-67
2022/05/19 08:40:08;;;;;;;14.75;1.90;;;18.00;67.70;;;;;;4188374;28;20722;-66
2022/05/19 08:42:12;;;;;;;3.78;1.45;;;18.10;67.60;;;;;;4188918;28;20063;-66
2022/05/19 08:44:40;;;;;;;10.60;1.23;;;18.20;68.40;;;;;;4187686;28;20042;-66
2022/05/19 08:46:45;;;;;;;3.33;1.30;;;18.10;68.10;;;;;;4186870;28;20102;-66
2022/05/19 08:48:50;;;;;;;3.92;1.10;;;18.10;67.80;;;;;;4187626;28;20032;-66
2022/05/19 08:51:03;;;;;;;4.60;1.33;;;17.90;68.70;;;;;;4188760;28;20033;-65
2022/05/19 08:53:06;;;;;;;8.73;1.95;;;17.90;68.90;;;;;;4187969;28;20047;-65
2022/05/19 08:55:11;;;;;;;9.45;1.67;;;18.10;68.70;;;;;;4188617;28;20062;-66
2022/05/19 08:57:30;;;;;;;4.97;1.60;;;18.60;68.00;;;;;;4187841;28;20102;-65
2022/05/19 08:59:58;;;;;;;3.38;1.00;;;18.90;66.00;;;;;;4188603;28;20045;-65
2022/05/19 09:02:05;;;;;;;2.28;0.80;;;18.80;65.30;;;;;;4187528;28;20455;-67
2022/05/19 09:04:19;;;;;;;5.25;0.98;;;18.60;65.60;;;;;;4188220;28;20021;-65
2022/05/19 09:06:38;;;;;;;3.70;0.75;;;18.60;66.90;;;;;;4187671;28;20041;-65
2022/05/19 09:08:50;;;;;;;9.15;1.30;;;18.90;65.60;;;;;;4188014;28;20082;-65
2022/05/19 09:11:18;;;;;;;4.03;0.68;;;19.00;65.30;;;;;;4186953;28;20037;-66
2022/05/19 09:13:31;;;;;;;8.02;1.83;;;18.90;63.90;;;;;;4186131;28;20044;-66
2022/05/19 09:15:34;;;;;;;6.05;1.00;;;18.70;64.00;;;;;;4188916;28;20032;-66
2022/05/19 09:17:40;;;;;;;4.43;1.15;;;18.50;63.90;;;;;;4187989;28;20021;-65
2022/05/19 09:19:52;;;;;;;4.85;0.90;;;18.50;63.80;;;;;;4191994;28;20085;-65
2022/05/19 09:22:07;;;;;;;17.67;2.92;;;18.60;63.80;;;;;;4190739;28;20070;-66
2022/05/19 09:24:12;;;;;;;9.65;1.88;;;18.70;64.50;;;;;;4191900;28;20093;-66
2022/05/19 09:26:29;;;;;;;11.00;1.95;;;18.70;62.80;;;;;;4190716;28;20446;-67
2022/05/19 09:28:31;;;;;;;12.02;1.75;;;18.60;62.00;;;;;;4191928;28;20086;-66
2022/05/19 09:30:48;;;;;;;1.63;0.88;;;18.50;62.00;;;;;;4190804;28;20439;-66
2022/05/19 09:32:53;;;;;;;3.40;1.33;;;18.40;63.00;;;;;;4191542;28;20457;-66
2022/05/19 09:35:06;;;;;;;4.30;0.70;;;18.60;62.90;;;;;;4190541;28;20106;-66
2022/05/19 09:37:15;;;;;;;5.80;0.73;;;18.70;60.20;;;;;;4191766;28;20044;-66
2022/05/19 09:39:18;;;;;;;25.75;3.47;;;19.00;59.90;;;;;;4188829;28;20040;-67
2022/05/19 09:41:45;;;;;;;22.42;3.42;;;19.00;57.60;;;;;;4191400;28;20032;-66
2022/05/19 09:43:52;;;;;;;3.22;0.70;;;19.00;57.10;;;;;;4190359;28;20032;-66
2022/05/19 09:46:16;;;;;;;18.52;2.75;;;19.00;57.50;;;;;;4191718;28;20096;-66
2022/05/19 09:48:25;;;;;;;34.42;4.95;;;19.20;56.80;;;;;;4190290;28;20079;-66
2022/05/19 09:50:29;;;;;;;16.23;2.45;;;19.00;55.80;;;;;;4191325;28;20086;-66
2022/05/19 09:52:32;;;;;;;1.98;0.50;;;19.10;56.70;;;;;;4188795;28;20415;-66
2022/05/19 09:54:34;;;;;;;21.60;2.67;;;19.10;56.40;;;;;;4191676;28;20109;-65
2022/05/19 09:56:43;;;;;;;16.30;2.47;;;19.10;55.50;;;;;;4190240;28;20044;-66
2022/05/19 09:58:47;;;;;;;11.75;1.77;;;19.00;55.60;;;;;;4191234;28;20126;-65
2022/05/19 10:00:50;;;;;;;4.63;1.30;;;18.90;56.00;;;;;;4190432;28;20419;-66
2022/05/19 10:02:58;;;;;;;8.68;0.85;;;19.00;56.90;;;;;;4189812;28;20146;-65
2022/05/19 10:05:01;;;;;;;5.28;1.23;;;19.10;57.70;;;;;;4190665;28;20041;-65
2022/05/19 10:07:23;;;;;;;70.28;9.75;;;19.10;57.20;;;;;;4190437;28;20048;-66
2022/05/19 10:09:33;;;;;;;15.98;1.98;;;19.00;56.10;;;;;;4190208;28;20078;-66
2022/05/19 10:11:34;;;;;;;0.97;0.40;;;18.90;56.10;;;;;;4191244;28;20045;-66
2022/05/19 10:14:06;;;;;;;2.38;1.23;;;18.90;56.60;;;;;;4190312;28;20427;-66
2022/05/19 10:16:45;;;;;;;5.32;1.20;;;19.10;57.10;;;;;;4187688;28;20106;-65
2022/05/19 10:19:11;;;;;;;9.03;0.90;;;19.30;53.60;;;;;;4189756;28;20033;-66
2022/05/19 10:21:46;;;;;;;9.02;1.77;;;19.30;52.90;;;;;;4191357;28;20269;-66
2022/05/19 10:24:13;;;;;;;1.52;0.52;;;19.30;52.50;;;;;;4188439;28;20041;-67
2022/05/19 10:26:32;;;;;;;8.95;0.95;;;19.20;51.60;;;;;;4190753;28;20480;-67
2022/05/19 10:31:38;;;;;;;2.53;0.40;;;18.90;53.30;;;;;;4189377;28;20037;-66
2022/05/19 10:34:04;;;;;;;13.15;1.40;;;18.90;53.90;;;;;;4191282;28;20090;-67
2022/05/19 10:36:25;;;;;;;4.43;0.60;;;19.10;54.80;;;;;;4189891;28;20496;-65
2022/05/19 10:38:42;;;;;;;7.18;1.35;;;19.10;54.60;;;;;;4191138;28;20020;-65
2022/05/19 10:40:49;;;;;;;8.25;1.20;;;19.30;55.30;;;;;;4189934;28;20090;-65
2022/05/19 10:43:17;;;;;;;3.67;0.73;;;19.50;55.10;;;;;;4191277;28;20029;-67
2022/05/19 10:45:23;;;;;;;35.92;5.40;;;19.70;53.20;;;;;;4187656;28;20451;-65
2022/05/19 10:47:52;;;;;;;22.45;2.65;;;19.70;53.20;;;;;;4189372;28;20154;-67
2022/05/19 10:50:28;;;;;;;1.98;0.73;;;19.30;52.50;;;;;;4190119;28;20020;-66
2022/05/19 10:52:38;;;;;;;87.95;8.20;;;19.20;54.00;;;;;;4190096;28;20802;-66
2022/05/19 10:55:01;;;;;;;6.72;1.25;;;19.00;52.60;;;;;;4190355;28;20044;-66
2022/05/19 10:57:18;;;;;;;2.10;0.50;;;19.00;54.00;;;;;;4189687;28;20020;-67
2022/05/19 10:59:54;;;;;;;1.10;0.40;;;19.20;52.60;;;;;;4190632;28;20041;-67
2022/05/19 11:02:12;;;;;;;1.40;0.63;;;19.50;53.50;;;;;;4188497;28;20094;-66
2022/05/19 11:04:29;;;;;;;2.45;1.10;;;19.50;54.10;;;;;;4191103;28;20049;-66
2022/05/19 11:06:53;;;;;;;1.98;0.70;;;19.50;54.20;;;;;;4187938;28;20037;-65